Time;durP1;ratioP1;P1;durP2;ratioP2;P2;SDS_P1;SDS_P2;PMS_P1;PMS_P2;Temp;Humidity;BMP_temperature;BMP_pressure;BME280_temperature;BME280_humidity;BME280_pressure;Samples;Min_cycle;Max_cycle;Signal;HPM_P1;HPM_P2
2023/08/29 00:01:24;;;;;;;;;;;;;;;27.54;35.95;99989.13;5075248;28;1979;-33
2023/08/29 00:03:51;;;;;;;;;;;;;;;27.50;35.87;99994.09;5075016;28;1142;-29
2023/08/29 00:06:16;;;;;;;;;;;;;;;27.53;35.76;99987.44;5075262;28;1019;-31
2023/08/29 00:08:42;;;;;;;;;;;;;;;27.58;36.01;99986.84;5075649;28;1101;-31
2023/08/29 00:11:07;;;;;;;;;;;;;;;27.49;36.04;99989.72;5075241;28;1018;-31
2023/08/29 00:13:33;;;;;;;;;;;;;;;27.55;36.09;99987.25;5074975;28;1162;-32
2023/08/29 00:15:58;;;;;;;;;;;;;;;27.47;36.04;99989.13;5063451;28;1085;-35
2023/08/29 00:18:24;;;;;;;;;;;;;;;27.38;35.91;99983.06;5073159;28;1051;-30
2023/08/29 00:20:49;;;;;;;;;;;;;;;27.45;36.14;99980.38;5074810;28;1201;-34
2023/08/29 00:23:15;;;;;;;;;;;;;;;27.45;35.85;99977.69;5075238;28;1982;-29
2023/08/29 00:25:40;;;;;;;;;;;;;;;27.59;35.89;99983.09;5074482;28;2015;-32
2023/08/29 00:28:07;;;;;;;;;;;;;;;27.42;35.93;99979.94;5074355;28;1161;-36
2023/08/29 00:30:35;;;;;;;;;;;;;;;27.47;35.84;99972.06;5074894;28;1019;-32
2023/08/29 00:33:01;;;;;;;;;;;;;;;27.47;36.16;99977.47;5043599;28;1118;-30
2023/08/29 00:35:26;;;;;;;;;;;;;;;27.48;35.70;99973.72;5057291;28;1127;-32
2023/08/29 00:37:52;;;;;;;;;;;;;;;27.51;36.09;99971.44;5058439;28;1076;-32
2023/08/29 00:40:17;;;;;;;;;;;;;;;27.39;35.95;99976.59;5060645;28;1126;-35
2023/08/29 00:42:43;;;;;;;;;;;;;;;27.60;35.89;99965.84;5060224;28;1914;-28
2023/08/29 00:45:09;;;;;;;;;;;;;;;27.48;35.67;99971.03;5060506;28;1091;-32
2023/08/29 00:47:35;;;;;;;;;;;;;;;27.61;35.83;99971.06;5078216;28;1154;-31
2023/08/29 00:50:00;;;;;;;;;;;;;;;27.53;35.74;99973.13;5059882;28;2082;-30
2023/08/29 00:52:26;;;;;;;;;;;;;;;27.56;35.86;99959.22;5073027;28;1126;-33
2023/08/29 00:54:51;;;;;;;;;;;;;;;27.58;35.65;99971.47;5051924;28;1410;-30
2023/08/29 00:57:17;;;;;;;;;;;;;;;27.46;35.84;99965.81;5078436;28;1806;-30
2023/08/29 00:59:43;;;;;;;;;;;;;;;27.51;36.30;99962.50;5078139;28;1147;-30
2023/08/29 01:02:09;;;;;;;;;;;;;;;27.48;35.86;99962.91;5077899;28;1909;-33
2023/08/29 01:04:35;;;;;;;;;;;;;;;27.47;36.16;99962.09;5078165;28;1226;-30
2023/08/29 01:07:00;;;;;;;;;;;;;;;27.53;35.74;99954.22;5059707;28;1078;-33
2023/08/29 01:09:26;;;;;;;;;;;;;;;27.43;36.40;99955.44;5078255;28;1280;-32
2023/08/29 01:11:57;;;;;;;;;;;;;;;27.48;36.02;99946.72;5040096;28;1076;-29
2023/08/29 01:14:40;;;;;;;;;;;;;;;27.51;35.80;99946.28;5059461;28;1097;-31
2023/08/29 01:17:08;;;;;;;;;;;;;;;27.55;36.07;99946.72;5047616;28;1268;-31
2023/08/29 01:19:35;;;;;;;;;;;;;;;27.37;35.98;99949.00;5059811;28;1564;-32
2023/08/29 01:22:07;;;;;;;;;;;;;;;27.51;36.18;99947.13;5077537;28;1898;-29
2023/08/29 01:24:43;;;;;;;;;;;;;;;27.44;36.20;99943.63;5060161;28;1174;-31
2023/08/29 01:27:08;;;;;;;;;;;;;;;27.38;36.16;99944.41;5067325;28;2675;-34
2023/08/29 01:29:34;;;;;;;;;;;;;;;27.45;35.88;99942.56;5056524;28;1198;-31
2023/08/29 01:31:59;;;;;;;;;;;;;;;27.56;36.02;99941.13;5059628;28;1032;-34
2023/08/29 01:34:25;;;;;;;;;;;;;;;27.36;36.23;99939.22;5059762;28;1170;-32
2023/08/29 01:36:50;;;;;;;;;;;;;;;27.52;36.04;99942.56;5077617;28;944;-32
2023/08/29 01:39:16;;;;;;;;;;;;;;;27.54;35.99;99937.81;5072725;28;1023;-31
2023/08/29 01:41:41;;;;;;;;;;;;;;;27.44;36.08;99937.38;5077082;28;1971;-33
2023/08/29 01:44:07;;;;;;;;;;;;;;;27.41;35.91;99935.91;5063451;28;1054;-32
2023/08/29 01:46:33;;;;;;;;;;;;;;;27.50;36.04;99945.47;5077113;28;1123;-30
2023/08/29 01:48:59;;;;;;;;;;;;;;;27.54;36.04;99945.06;5058388;28;1090;-31
2023/08/29 01:51:24;;;;;;;;;;;;;;;27.37;36.13;99948.16;5048852;28;873;-30
2023/08/29 01:53:50;;;;;;;;;;;;;;;27.63;36.02;99952.78;5073459;28;1049;-32
2023/08/29 01:56:16;;;;;;;;;;;;;;;27.50;35.92;99950.88;5059366;28;1955;-29
2023/08/29 01:58:41;;;;;;;;;;;;;;;27.56;36.16;99943.81;5042668;28;1542;-34
2023/08/29 02:01:07;;;;;;;;;;;;;;;27.46;36.23;99949.63;5048338;28;1965;-29
2023/08/29 02:03:32;;;;;;;;;;;;;;;27.55;36.10;99944.88;5056491;28;1107;-35
2023/08/29 02:05:58;;;;;;;;;;;;;;;27.39;36.73;99948.78;5048104;28;1236;-34
2023/08/29 02:08:23;;;;;;;;;;;;;;;27.44;36.30;99942.78;5061382;28;1087;-34
2023/08/29 02:10:49;;;;;;;;;;;;;;;27.40;36.82;99945.03;5065786;28;1015;-31
2023/08/29 02:13:14;;;;;;;;;;;;;;;27.38;36.33;99950.66;5076323;28;1143;-35
2023/08/29 02:15:40;;;;;;;;;;;;;;;27.45;36.42;99953.38;5067877;28;854;-32
2023/08/29 02:18:05;;;;;;;;;;;;;;;27.36;36.43;99944.63;5054213;28;1107;-33
2023/08/29 02:20:31;;;;;;;;;;;;;;;27.43;36.57;99952.72;5076578;28;1190;-31
2023/08/29 02:22:56;;;;;;;;;;;;;;;27.50;36.40;99950.88;5076149;28;1983;-29
2023/08/29 02:25:22;;;;;;;;;;;;;;;27.47;36.61;99951.31;5076668;28;2443;-30
2023/08/29 02:27:47;;;;;;;;;;;;;;;27.49;36.76;99951.09;5074874;28;1022;-30
2023/08/29 02:30:13;;;;;;;;;;;;;;;27.57;36.26;99942.78;5076464;28;1158;-29
2023/08/29 02:32:39;;;;;;;;;;;;;;;27.47;36.67;99950.47;5076227;28;1111;-34
2023/08/29 02:35:05;;;;;;;;;;;;;;;27.32;36.34;99948.78;5076125;28;1107;-31
2023/08/29 02:37:30;;;;;;;;;;;;;;;27.47;36.32;99959.41;5076375;28;999;-31
2023/08/29 02:39:56;;;;;;;;;;;;;;;27.37;36.58;99954.41;5066654;28;966;-34
2023/08/29 02:42:22;;;;;;;;;;;;;;;27.48;36.35;99958.34;5072039;28;1972;-29
2023/08/29 02:44:47;;;;;;;;;;;;;;;27.50;36.39;99950.03;5076087;28;1074;-32
2023/08/29 02:47:13;;;;;;;;;;;;;;;27.45;36.29;99949.81;5076311;28;1063;-36
2023/08/29 02:49:38;;;;;;;;;;;;;;;27.51;36.17;99947.13;5076178;28;1130;-32
2023/08/29 02:52:05;;;;;;;;;;;;;;;27.47;36.06;99943.19;5073518;28;1171;-30
2023/08/29 02:54:30;;;;;;;;;;;;;;;27.50;36.21;99952.75;5055901;28;1143;-30
2023/08/29 02:56:56;;;;;;;;;;;;;;;27.43;36.19;99941.94;5071349;28;2368;-34
2023/08/29 02:59:22;;;;;;;;;;;;;;;27.50;36.29;99950.03;5075045;28;1046;-31
2023/08/29 03:01:47;;;;;;;;;;;;;;;27.35;36.28;99940.25;5075411;28;1972;-30
2023/08/29 03:04:13;;;;;;;;;;;;;;;27.44;36.62;99943.63;5057618;28;1209;-33
2023/08/29 03:06:39;;;;;;;;;;;;;;;27.22;36.27;99938.38;5075747;28;1421;-30
2023/08/29 03:09:07;;;;;;;;;;;;;;;27.40;36.35;99942.34;5075990;28;1015;-35
2023/08/29 03:11:33;;;;;;;;;;;;;;;27.24;36.46;99938.16;5057852;28;1201;-30
2023/08/29 03:13:58;;;;;;;;;;;;;;;27.38;36.47;99929.03;5057857;28;1158;-33
2023/08/29 03:16:24;;;;;;;;;;;;;;;27.76;35.93;99937.63;5075347;28;1042;-33
2023/08/29 03:18:50;;;;;;;;;;;;;;;27.68;35.56;99925.16;5057686;28;1173;-35
2023/08/29 03:21:16;;;;;;;;;;;;;;;27.82;34.81;99923.31;5057687;28;2023;-34
2023/08/29 03:23:42;;;;;;;;;;;;;;;27.99;34.75;99939.09;5057795;28;1210;-32
2023/08/29 03:26:08;;;;;;;;;;;;;;;28.08;34.33;99932.44;5057515;28;1947;-32
2023/08/29 03:28:34;;;;;;;;;;;;;;;28.20;34.94;99942.59;5071665;28;894;-30
2023/08/29 03:31:08;;;;;;;;;;;;;;;28.16;34.99;99946.78;5075562;28;1194;-29
2023/08/29 03:33:34;;;;;;;;;;;;;;;27.99;35.52;99942.63;5075206;28;1250;-32
2023/08/29 03:36:00;;;;;;;;;;;;;;;27.25;37.03;99939.81;5057104;28;1131;-31
2023/08/29 03:38:25;;;;;;;;;;;;;;;26.97;38.13;99951.53;5046620;28;1143;-31
2023/08/29 03:40:57;;;;;;;;;;;;;;;26.66;39.41;99942.88;5072405;28;1170;-35
2023/08/29 03:43:23;;;;;;;;;;;;;;;26.73;39.33;99943.75;5074832;28;1898;-35
2023/08/29 03:45:58;;;;;;;;;;;;;;;26.35;40.44;99934.22;5044514;28;1218;-31
2023/08/29 03:48:23;;;;;;;;;;;;;;;26.36;40.97;99943.13;5055144;28;1294;-33
2023/08/29 03:50:49;;;;;;;;;;;;;;;26.43;40.75;99941.31;5037185;28;2198;-33
2023/08/29 03:53:15;;;;;;;;;;;;;;;26.38;40.63;99933.81;5038963;28;1337;-36
2023/08/29 03:55:41;;;;;;;;;;;;;;;26.15;40.93;99934.88;5056509;28;1773;-32
2023/08/29 03:58:06;;;;;;;;;;;;;;;26.34;39.82;99929.00;5074820;28;979;-31
2023/08/29 04:00:32;;;;;;;;;;;;;;;26.35;39.86;99931.50;5074224;28;1629;-38
2023/08/29 04:02:59;;;;;;;;;;;;;;;25.89;40.94;99936.31;5056075;28;1910;-34
2023/08/29 04:05:26;;;;;;;;;;;;;;;25.95;41.99;99933.88;5043249;28;1260;-38
2023/08/29 04:07:51;;;;;;;;;;;;;;;21.06;52.87;99921.47;5075445;28;1103;-34
2023/08/29 04:10:17;;;;;;;;;;;;;;;19.95;56.58;99924.69;5056697;28;1106;-39
2023/08/29 04:12:42;;;;;;;;;;;;;;;19.69;58.51;99928.97;5078811;28;1142;-37
2023/08/29 04:15:10;;;;;;;;;;;;;;;19.75;58.74;99926.66;5060938;28;1223;-38
2023/08/29 04:17:36;;;;;;;;;;;;;;;19.73;59.39;99928.66;5078764;28;1114;-39
2023/08/29 04:20:05;;;;;;;;;;;;;;;19.63;60.14;99918.91;5060852;28;1009;-39
2023/08/29 04:22:31;;;;;;;;;;;;;;;22.51;52.54;99921.19;5060658;28;1971;-36
2023/08/29 04:24:56;;;;;;;;;;;;;;;21.82;52.45;99922.47;5078764;28;1095;-34
2023/08/29 04:27:22;;;;;;;;;;;;;;;21.01;57.91;99921.13;5065144;28;2495;-31
2023/08/29 04:29:47;;;;;;;;;;;;;;;24.03;48.01;99920.16;5078799;28;1126;-35
2023/08/29 04:32:13;;;;;;;;;;;;;;;20.86;55.36;99920.88;5060656;28;1086;-34
2023/08/29 04:34:39;;;;;;;;;;;;;;;22.94;50.80;99923.56;5078644;28;1044;-31
2023/08/29 04:37:04;;;;;;;;;;;;;;;21.85;51.85;99925.66;5078781;28;1121;-31
2023/08/29 04:39:30;;;;;;;;;;;;;;;21.21;56.79;99919.00;5064882;28;1170;-36
2023/08/29 04:41:56;;;;;;;;;;;;;;;24.00;48.31;99928.59;5048932;28;1913;-35
2023/08/29 04:44:21;;;;;;;;;;;;;;;20.73;56.30;99924.00;5058734;28;1540;-32
2023/08/29 04:46:47;;;;;;;;;;;;;;;23.31;49.56;99928.38;5077982;28;1059;-32
2023/08/29 04:49:12;;;;;;;;;;;;;;;21.44;53.11;99918.38;5078355;28;1179;-31
2023/08/29 04:51:38;;;;;;;;;;;;;;;21.54;55.39;99923.56;5077943;28;1164;-29
2023/08/29 04:54:03;;;;;;;;;;;;;;;24.20;47.57;99931.63;5064949;28;1083;-36
2023/08/29 04:56:29;;;;;;;;;;;;;;;20.85;57.14;99928.06;5077891;28;2159;-35
2023/08/29 04:58:55;;;;;;;;;;;;;;;23.68;48.69;99934.03;5060160;28;1304;-37
2023/08/29 05:01:21;;;;;;;;;;;;;;;21.07;53.95;99919.66;5060125;28;1922;-34
2023/08/29 05:03:47;;;;;;;;;;;;;;;21.90;54.64;99930.50;5046632;28;1261;-33
2023/08/29 05:06:12;;;;;;;;;;;;;;;23.73;45.25;99931.66;5066612;28;999;-34
2023/08/29 05:08:38;;;;;;;;;;;;;;;20.68;57.46;99925.31;5058197;28;1212;-32
2023/08/29 05:11:05;;;;;;;;;;;;;;;23.42;49.61;99925.31;5060348;28;1261;-34
2023/08/29 05:13:30;;;;;;;;;;;;;;;21.32;53.50;99923.19;5078183;28;1106;-32
2023/08/29 05:15:56;;;;;;;;;;;;;;;21.77;54.99;99929.13;5059840;28;1221;-33
2023/08/29 05:18:21;;;;;;;;;;;;;;;23.83;44.75;99926.88;5059940;28;1206;-33
2023/08/29 05:20:47;;;;;;;;;;;;;;;20.71;57.43;99920.63;5077989;28;1158;-33
2023/08/29 05:23:12;;;;;;;;;;;;;;;23.41;49.48;99933.56;5058679;28;1906;-36
2023/08/29 05:25:39;;;;;;;;;;;;;;;21.33;53.44;99930.25;5077212;28;1847;-33
2023/08/29 05:28:05;;;;;;;;;;;;;;;21.70;55.07;99935.31;5077042;28;1051;-33
2023/08/29 05:30:31;;;;;;;;;;;;;;;24.46;45.87;99943.78;5066522;28;1076;-34
2023/08/29 05:32:56;;;;;;;;;;;;;;;20.68;55.82;99929.81;5075081;28;1115;-39
2023/08/29 05:35:22;;;;;;;;;;;;;;;22.90;51.19;99929.44;5077591;28;1105;-31
2023/08/29 05:37:47;;;;;;;;;;;;;;;22.75;49.61;99925.63;5077101;28;1071;-30
2023/08/29 05:40:13;;;;;;;;;;;;;;;20.86;55.48;99923.53;5077414;28;1070;-34
2023/08/29 05:42:38;;;;;;;;;;;;;;;22.71;52.16;99926.16;5063904;28;1984;-32
2023/08/29 05:45:04;;;;;;;;;;;;;;;22.99;48.72;99918.50;5077421;28;1077;-30
2023/08/29 05:47:29;;;;;;;;;;;;;;;20.73;56.05;99918.66;5077043;28;1159;-36
2023/08/29 05:49:55;;;;;;;;;;;;;;;22.99;51.18;99926.56;5076839;28;995;-30
2023/08/29 05:52:20;;;;;;;;;;;;;;;22.90;49.29;99919.56;5060136;28;1078;-33
2023/08/29 05:54:46;;;;;;;;;;;;;;;20.88;54.33;99922.41;5067992;28;1040;-31
2023/08/29 05:57:12;;;;;;;;;;;;;;;20.30;55.89;99916.78;5077037;28;1814;-32
2023/08/29 05:59:37;;;;;;;;;;;;;;;20.18;55.94;99929.53;5076882;28;1188;-31
2023/08/29 06:02:03;;;;;;;;;;;;;;;19.94;56.79;99922.97;5077025;28;1981;-30
2023/08/29 06:04:28;;;;;;;;;;;;;;;21.45;56.63;99925.44;5077184;28;1287;-33
2023/08/29 06:06:54;;;;;;;;;;;;;;;23.96;47.13;99928.94;5076895;28;1008;-35
2023/08/29 06:09:19;;;;;;;;;;;;;;;20.51;53.09;99927.06;5076990;28;1043;-30
2023/08/29 06:11:45;;;;;;;;;;;;;;;19.79;54.37;99926.22;5076814;28;1080;-34
2023/08/29 06:14:11;;;;;;;;;;;;;;;19.77;55.57;99922.03;5076527;28;1040;-37
2023/08/29 06:16:36;;;;;;;;;;;;;;;19.77;55.90;99919.34;5072484;28;1225;-32
2023/08/29 06:19:02;;;;;;;;;;;;;;;19.75;56.15;99927.50;5066926;28;1074;-33
2023/08/29 06:21:28;;;;;;;;;;;;;;;19.65;56.65;99922.22;5076408;28;1914;-35
2023/08/29 06:23:53;;;;;;;;;;;;;;;19.78;58.17;99921.88;5076862;28;1004;-33
2023/08/29 06:26:19;;;;;;;;;;;;;;;22.80;50.95;99918.94;5072494;28;2529;-34
2023/08/29 06:28:44;;;;;;;;;;;;;;;21.53;50.60;99921.91;5062191;28;1159;-32
2023/08/29 06:31:10;;;;;;;;;;;;;;;20.03;54.01;99929.22;5059746;28;1066;-32
2023/08/29 06:33:36;;;;;;;;;;;;;;;19.75;55.66;99926.66;5066034;28;1024;-30
2023/08/29 06:36:01;;;;;;;;;;;;;;;19.66;55.96;99926.59;5076321;28;1217;-32
2023/08/29 06:38:27;;;;;;;;;;;;;;;19.67;56.60;99933.59;5076028;28;1050;-34
2023/08/29 06:41:03;;;;;;;;;;;;;;;19.81;56.20;99923.38;5065734;28;1043;-30
2023/08/29 06:43:29;;;;;;;;;;;;;;;19.81;56.73;99923.38;5075884;28;1906;-31
2023/08/29 06:45:54;;;;;;;;;;;;;;;21.32;56.57;99925.88;5075532;28;1181;-36
2023/08/29 06:48:20;;;;;;;;;;;;;;;23.64;48.21;99922.81;5076039;28;1127;-36
2023/08/29 06:50:46;;;;;;;;;;;;;;;20.61;54.26;99918.09;5072228;28;1357;-32
2023/08/29 06:53:12;;;;;;;;;;;;;;;19.99;55.95;99920.69;5076063;28;1003;-37
2023/08/29 06:55:37;;;;;;;;;;;;;;;19.81;56.81;99920.72;5062499;28;1831;-33
2023/08/29 06:58:04;;;;;;;;;;;;;;;19.80;56.86;99927.06;5075732;28;1194;-34
2023/08/29 07:00:32;;;;;;;;;;;;;;;19.81;57.51;99912.72;5075538;28;1213;-35
2023/08/29 07:03:00;;;;;;;;;;;;;;;20.34;61.54;99912.78;5076218;28;1906;-35
2023/08/29 07:05:26;;;;;;;;;;;;;;;23.59;47.97;99918.00;5075556;28;1102;-33
2023/08/29 07:07:51;;;;;;;;;;;;;;;20.96;52.76;99910.91;5076234;28;1019;-35
2023/08/29 07:10:17;;;;;;;;;;;;;;;20.26;55.35;99913.56;5075769;28;1170;-33
2023/08/29 07:12:43;;;;;;;;;;;;;;;19.92;56.46;99919.63;5058198;28;1159;-31
2023/08/29 07:15:08;;;;;;;;;;;;;;;19.91;56.82;99910.78;5075836;28;1038;-31
2023/08/29 07:17:34;;;;;;;;;;;;;;;20.05;56.67;99916.59;5058004;28;1123;-33
2023/08/29 07:19:59;;;;;;;;;;;;;;;20.05;56.51;99909.41;5057841;28;1036;-32
2023/08/29 07:22:25;;;;;;;;;;;;;;;22.14;53.05;99915.41;5067086;28;1980;-33
2023/08/29 07:24:51;;;;;;;;;;;;;;;23.07;48.55;99920.31;5075557;28;996;-34
2023/08/29 07:27:17;;;;;;;;;;;;;;;20.81;53.54;99913.34;5076411;28;2613;-32
2023/08/29 07:29:42;;;;;;;;;;;;;;;20.41;55.37;99910.31;5075702;28;1170;-31
2023/08/29 07:32:08;;;;;;;;;;;;;;;20.38;55.71;99910.63;5075097;28;1003;-35
2023/08/29 07:34:34;;;;;;;;;;;;;;;20.40;55.95;99905.97;5071799;28;1056;-35
2023/08/29 07:37:00;;;;;;;;;;;;;;;20.36;56.41;99908.13;5066730;28;1059;-33
2023/08/29 07:39:25;;;;;;;;;;;;;;;20.45;56.68;99906.34;5076136;28;1099;-32
2023/08/29 07:41:51;;;;;;;;;;;;;;;23.16;50.22;99906.84;5075273;28;1914;-34
2023/08/29 07:44:17;;;;;;;;;;;;;;;22.56;49.23;99905.41;5075883;28;1151;-32
2023/08/29 07:46:42;;;;;;;;;;;;;;;20.97;53.84;99906.41;5077482;28;1020;-32
2023/08/29 07:49:13;;;;;;;;;;;;;;;20.75;54.89;99911.31;5080121;28;1020;-32
2023/08/29 07:51:41;;;;;;;;;;;;;;;20.69;55.44;99907.44;5079907;28;1058;-33
2023/08/29 07:54:07;;;;;;;;;;;;;;;20.61;55.63;99902.06;5074838;28;1066;-31
2023/08/29 07:56:33;;;;;;;;;;;;;;;20.58;56.00;99897.03;5060459;28;2585;-35
2023/08/29 07:58:58;;;;;;;;;;;;;;;20.88;58.75;99898.34;5077444;28;936;-35
2023/08/29 08:01:24;;;;;;;;;;;;;;;23.72;49.07;99892.41;5078785;28;1918;-34
2023/08/29 08:03:49;;;;;;;;;;;;;;;22.26;50.50;99894.44;5079462;28;1269;-32
2023/08/29 08:06:15;;;;;;;;;;;;;;;20.95;54.58;99893.22;5069013;28;860;-35
2023/08/29 08:08:40;;;;;;;;;;;;;;;20.65;55.71;99890.88;5076497;28;1075;-37
2023/08/29 08:11:06;;;;;;;;;;;;;;;20.55;56.18;99895.53;5079526;28;1114;-33
2023/08/29 08:13:32;;;;;;;;;;;;;;;20.45;56.62;99890.31;5078681;28;1046;-35
2023/08/29 08:15:58;;;;;;;;;;;;;;;20.62;56.31;99893.88;5078937;28;1118;-37
2023/08/29 08:18:23;;;;;;;;;;;;;;;20.95;60.25;99897.72;5074928;28;1062;-34
2023/08/29 08:20:49;;;;;;;;;;;;;;;24.05;48.60;99904.69;5058985;28;1139;-34
2023/08/29 08:23:14;;;;;;;;;;;;;;;21.80;51.44;99900.38;5076438;28;1975;-36
2023/08/29 08:25:40;;;;;;;;;;;;;;;20.61;54.52;99900.22;5079287;28;2407;-36
2023/08/29 08:28:06;;;;;;;;;;;;;;;20.48;56.20;99902.50;5061752;28;1105;-33
2023/08/29 08:30:32;;;;;;;;;;;;;;;20.57;56.32;99898.84;5071790;28;884;-32
2023/08/29 08:32:57;;;;;;;;;;;;;;;20.46;56.49;99889.31;5060804;28;1026;-36
2023/08/29 08:35:24;;;;;;;;;;;;;;;20.45;56.38;99878.78;5078840;28;1196;-33
2023/08/29 08:37:49;;;;;;;;;;;;;;;20.42;56.40;99877.25;5078741;28;1042;-36
2023/08/29 08:40:15;;;;;;;;;;;;;;;20.38;56.47;99881.25;5079398;28;1008;-31
2023/08/29 08:42:40;;;;;;;;;;;;;;;20.38;56.39;99881.25;5073711;28;1976;-36
2023/08/29 08:45:07;;;;;;;;;;;;;;;20.34;56.30;99877.19;5070011;28;1051;-35
2023/08/29 08:47:33;;;;;;;;;;;;;;;20.43;56.23;99879.78;5078441;28;1119;-34
2023/08/29 08:49:59;;;;;;;;;;;;;;;20.47;56.54;99888.28;5061020;28;1083;-31
2023/08/29 08:52:24;;;;;;;;;;;;;;;20.50;56.59;99884.47;5078648;28;1027;-32
2023/08/29 08:54:50;;;;;;;;;;;;;;;21.89;56.64;99892.16;5067145;28;840;-31
2023/08/29 08:57:15;;;;;;;;;;;;;;;24.27;48.09;99894.94;5070390;28;2401;-32
2023/08/29 08:59:44;;;;;;;;;;;;;;;21.31;53.01;99891.28;5058176;28;1596;-32
2023/08/29 09:02:10;;;;;;;;;;;;;;;20.58;55.73;99891.69;5058622;28;1906;-34
2023/08/29 09:04:36;;;;;;;;;;;;;;;20.52;55.87;99882.50;5078267;28;1106;-36
2023/08/29 09:07:01;;;;;;;;;;;;;;;20.46;56.41;99885.78;5055158;28;1023;-37
2023/08/29 09:09:27;;;;;;;;;;;;;;;20.57;56.41;99887.34;5058064;28;1166;-35
2023/08/29 09:11:53;;;;;;;;;;;;;;;20.64;56.43;99885.69;5076171;28;956;-38
2023/08/29 09:14:19;;;;;;;;;;;;;;;21.24;60.85;99893.75;5066531;28;1011;-34
2023/08/29 09:16:44;;;;;;;;;;;;;;;24.19;47.93;99886.97;5076274;28;1090;-35
2023/08/29 09:19:10;;;;;;;;;;;;;;;21.67;51.95;99887.47;5066025;28;879;-34
2023/08/29 09:21:36;;;;;;;;;;;;;;;20.82;55.03;99887.44;5076221;28;1971;-34
2023/08/29 09:24:04;;;;;;;;;;;;;;;20.85;55.57;99887.97;5078203;28;1063;-33
2023/08/29 09:26:33;;;;;;;;;;;;;;;20.75;56.39;99881.91;5077522;28;2375;-32
2023/08/29 09:28:59;;;;;;;;;;;;;;;20.70;56.84;99898.44;5077687;28;1237;-37
2023/08/29 09:31:25;;;;;;;;;;;;;;;20.78;56.72;99901.16;5071882;28;1070;-32
2023/08/29 09:33:50;;;;;;;;;;;;;;;21.28;60.36;99906.66;5057941;28;1146;-34
2023/08/29 09:36:16;;;;;;;;;;;;;;;24.08;48.84;99894.41;5063282;28;1155;-31
2023/08/29 09:38:42;;;;;;;;;;;;;;;22.11;51.66;99895.16;5077780;28;1117;-35
2023/08/29 09:41:14;;;;;;;;;;;;;;;21.02;54.22;99880.03;5077729;28;1007;-32
2023/08/29 09:43:47;;;;;;;;;;;;;;;20.79;55.64;99881.44;5076914;28;1988;-33
2023/08/29 09:46:12;;;;;;;;;;;;;;;20.98;55.61;99870.66;5064522;28;1012;-37
2023/08/29 09:48:42;;;;;;;;;;;;;;;20.99;56.13;99872.31;5077638;28;1423;-35
2023/08/29 09:51:08;;;;;;;;;;;;;;;20.92;56.35;99881.00;5060067;28;1099;-34
2023/08/29 09:53:34;;;;;;;;;;;;;;;20.89;56.19;99883.97;5059181;28;1039;-34
2023/08/29 09:56:03;;;;;;;;;;;;;;;21.01;55.94;99881.88;5076237;28;2370;-33
2023/08/29 09:58:29;;;;;;;;;;;;;;;20.98;55.64;99878.66;5046498;28;1111;-33
2023/08/29 10:00:55;;;;;;;;;;;;;;;21.00;55.75;99877.50;5077312;28;1214;-36
2023/08/29 10:03:20;;;;;;;;;;;;;;;21.05;55.47;99869.00;5058975;28;1914;-34
2023/08/29 10:05:46;;;;;;;;;;;;;;;20.97;55.59;99867.13;5076871;28;1143;-37
2023/08/29 10:08:15;;;;;;;;;;;;;;;21.05;55.45;99871.69;5062070;28;1067;-37
2023/08/29 10:10:40;;;;;;;;;;;;;;;20.98;55.50;99871.50;5066063;28;1132;-35
2023/08/29 10:13:06;;;;;;;;;;;;;;;20.99;55.25;99872.31;5076902;28;1222;-35
2023/08/29 10:15:32;;;;;;;;;;;;;;;20.95;55.56;99861.13;5059186;28;1151;-33
2023/08/29 10:17:57;;;;;;;;;;;;;;;20.96;55.27;99865.47;5076740;28;1158;-34
2023/08/29 10:20:23;;;;;;;;;;;;;;;20.92;55.58;99864.06;5050926;28;1127;-36
2023/08/29 10:22:48;;;;;;;;;;;;;;;21.00;55.10;99856.09;5071370;28;1906;-33
2023/08/29 10:25:14;;;;;;;;;;;;;;;20.95;55.56;99857.63;5077075;28;2270;-37
2023/08/29 10:27:39;;;;;;;;;;;;;;;21.06;55.02;99867.16;5075729;28;1004;-36
2023/08/29 10:30:05;;;;;;;;;;;;;;;20.90;55.37;99868.78;5076571;28;1011;-36
2023/08/29 10:32:31;;;;;;;;;;;;;;;20.94;55.54;99859.44;5063779;28;1086;-35
2023/08/29 10:34:57;;;;;;;;;;;;;;;21.02;55.22;99869.34;5076309;28;1179;-34
2023/08/29 10:37:24;;;;;;;;;;;;;;;20.96;55.35;99862.78;5076578;28;1099;-34
2023/08/29 10:39:52;;;;;;;;;;;;;;;21.12;54.96;99858.50;5058583;28;1190;-35
2023/08/29 10:42:18;;;;;;;;;;;;;;;21.21;54.56;99854.81;5074376;28;1980;-33
2023/08/29 10:44:44;;;;;;;;;;;;;;;21.10;54.95;99856.00;5064409;28;1016;-38
2023/08/29 10:47:16;;;;;;;;;;;;;;;21.16;54.88;99860.66;5076411;28;1090;-35
2023/08/29 10:49:45;;;;;;;;;;;;;;;21.22;54.82;99867.19;5076420;28;1071;-37
2023/08/29 10:52:10;;;;;;;;;;;;;;;21.29;54.45;99867.34;5076492;28;1123;-37
2023/08/29 10:54:36;;;;;;;;;;;;;;;21.29;54.43;99873.56;5071274;28;1051;-34
2023/08/29 10:57:02;;;;;;;;;;;;;;;21.21;54.57;99853.97;5073331;28;2239;-34
2023/08/29 10:59:32;;;;;;;;;;;;;;;21.22;54.61;99858.34;5047898;28;1036;-33
2023/08/29 11:02:16;;;;;;;;;;;;;;;21.31;54.45;99864.53;5076239;28;1953;-36
2023/08/29 11:04:42;;;;;;;;;;;;;;;21.38;54.24;99858.34;5075593;28;1317;-35
2023/08/29 11:07:09;;;;;;;;;;;;;;;21.25;54.55;99866.84;5058862;28;1086;-34
2023/08/29 11:09:34;;;;;;;;;;;;;;;21.17;54.33;99854.31;5050475;28;1099;-35
2023/08/29 11:12:12;;;;;;;;;;;;;;;21.31;54.12;99862.69;5057769;28;1079;-31
2023/08/29 11:14:51;;;;;;;;;;;;;;;21.39;54.01;99860.03;5075799;28;1073;-35
2023/08/29 11:17:23;;;;;;;;;;;;;;;21.52;53.76;99862.19;5076002;28;1055;-36
2023/08/29 11:19:55;;;;;;;;;;;;;;;21.48;54.04;99865.38;5072532;28;979;-35
2023/08/29 11:22:22;;;;;;;;;;;;;;;21.60;53.57;99855.19;5055916;28;1902;-34
2023/08/29 11:24:55;;;;;;;;;;;;;;;21.61;54.11;99846.97;5072909;28;1094;-35
2023/08/29 11:27:21;;;;;;;;;;;;;;;22.81;54.88;99858.94;5064218;28;2733;-33
2023/08/29 11:29:47;;;;;;;;;;;;;;;25.30;46.36;99855.63;5055432;28;1198;-31
2023/08/29 11:32:13;;;;;;;;;;;;;;;22.66;50.95;99858.84;5071418;28;857;-35
2023/08/29 11:34:38;;;;;;;;;;;;;;;22.01;52.84;99867.72;5075431;28;1040;-32
2023/08/29 11:37:08;;;;;;;;;;;;;;;21.81;53.95;99875.25;5075915;28;1031;-33
2023/08/29 11:39:34;;;;;;;;;;;;;;;21.89;53.92;99867.22;5075850;28;1233;-34
2023/08/29 11:41:59;;;;;;;;;;;;;;;21.91;54.10;99867.91;5075397;28;1906;-33
2023/08/29 11:44:27;;;;;;;;;;;;;;;21.87;55.71;99858.53;5075527;28;1147;-34
2023/08/29 11:46:56;;;;;;;;;;;;;;;24.74;48.54;99862.44;5058311;28;1048;-34
2023/08/29 11:49:22;;;;;;;;;;;;;;;23.76;48.37;99863.31;5075830;28;1170;-33
2023/08/29 11:51:47;;;;;;;;;;;;;;;22.20;52.86;99866.53;5075734;28;1079;-33
2023/08/29 11:54:32;;;;;;;;;;;;;;;22.00;53.26;99868.72;5075658;28;1082;-33
2023/08/29 11:56:57;;;;;;;;;;;;;;;21.74;54.28;99865.19;5071067;28;1938;-38
2023/08/29 11:59:23;;;;;;;;;;;;;;;21.59;54.63;99859.69;5075299;28;1204;-32
2023/08/29 12:01:48;;;;;;;;;;;;;;;21.63;54.95;99862.88;5075938;28;1905;-35
2023/08/29 12:04:14;;;;;;;;;;;;;;;22.47;57.22;99868.94;5057800;28;1580;-36
2023/08/29 12:06:40;;;;;;;;;;;;;;;25.22;47.49;99871.91;5075021;28;1122;-33
2023/08/29 12:09:05;;;;;;;;;;;;;;;22.53;51.58;99865.56;5076127;28;1115;-32
2023/08/29 12:11:41;;;;;;;;;;;;;;;21.90;53.80;99868.91;5041516;28;1034;-36
2023/08/29 12:14:07;;;;;;;;;;;;;;;21.65;54.62;99856.34;5066192;28;1072;-34
2023/08/29 12:16:33;;;;;;;;;;;;;;;21.79;54.38;99855.88;5072002;28;1138;-33
2023/08/29 12:19:08;;;;;;;;;;;;;;;21.59;55.12;99853.50;5057287;28;1162;-36
2023/08/29 12:21:34;;;;;;;;;;;;;;;21.61;55.00;99857.69;5061636;28;1967;-34
2023/08/29 12:24:10;;;;;;;;;;;;;;;24.09;50.72;99854.94;5075247;28;1424;-36
2023/08/29 12:26:35;;;;;;;;;;;;;;;23.91;48.01;99850.75;5069417;28;1937;-31
2023/08/29 12:29:01;;;;;;;;;;;;;;;22.04;53.34;99847.81;5055537;28;1151;-35
2023/08/29 12:31:27;;;;;;;;;;;;;;;21.75;54.14;99844.63;5060765;28;1135;-36
2023/08/29 12:33:53;;;;;;;;;;;;;;;21.56;55.01;99835.09;5078836;28;1157;-36
2023/08/29 12:36:18;;;;;;;;;;;;;;;21.58;54.90;99833.09;5078838;28;1038;-35
2023/08/29 12:38:44;;;;;;;;;;;;;;;21.59;55.22;99838.28;5078597;28;1055;-36
2023/08/29 12:41:12;;;;;;;;;;;;;;;22.16;59.28;99827.69;5078782;28;1010;-33
2023/08/29 12:43:40;;;;;;;;;;;;;;;25.00;47.65;99830.69;5078521;28;1906;-36
2023/08/29 12:46:05;;;;;;;;;;;;;;;22.51;51.75;99822.00;5065401;28;1062;-33
2023/08/29 12:48:31;;;;;;;;;;;;;;;21.86;54.00;99825.56;5079032;28;1165;-33
2023/08/29 12:50:56;;;;;;;;;;;;;;;21.49;55.04;99824.22;5078533;28;1114;-37
2023/08/29 12:53:22;;;;;;;;;;;;;;;21.41;55.55;99814.38;5078691;28;1031;-35